Time;durP1;ratioP1;P1;durP2;ratioP2;P2;SDS_P1;SDS_P2;PMS_P1;PMS_P2;Temp;Humidity;BMP_temperature;BMP_pressure;BME280_temperature;BME280_humidity;BME280_pressure;Samples;Min_cycle;Max_cycle;Signal;HPM_P1;HPM_P2
2022/01/26 00:07:48;;;;;;;33.83;21.93;;;;;;;-0.79;89.45;98043.84;5015466;28;20223;-67
2022/01/26 00:10:16;;;;;;;29.23;19.77;;;;;;;-0.76;88.81;98055.00;5015706;28;20643;-67
2022/01/26 00:12:42;;;;;;;30.53;20.47;;;;;;;-0.73;89.15;98051.47;5015687;28;20224;-67
2022/01/26 00:15:10;;;;;;;29.07;19.37;;;;;;;-0.71;89.56;98047.91;5015649;28;20220;-67
2022/01/26 00:17:36;;;;;;;31.43;21.03;;;;;;;-0.75;89.28;98048.06;5016427;28;20217;-67
2022/01/26 00:20:12;;;;;;;32.77;20.83;;;;;;;-0.76;89.15;98046.34;5019200;28;20211;-67
2022/01/26 00:22:54;;;;;;;29.70;19.93;;;;;;;-0.78;89.65;98048.97;5019545;28;20314;-66
2022/01/26 00:25:34;;;;;;;30.83;19.90;;;;;;;-0.83;89.11;98055.19;5019421;28;20208;-68
2022/01/26 00:28:20;;;;;;;30.93;20.03;;;;;;;-0.82;89.27;98047.38;5019329;28;20301;-67
2022/01/26 00:38:59;;;;;;;28.83;19.93;;;;;;;-0.96;89.87;98048.63;5007195;28;20211;-67
2022/01/26 00:41:34;;;;;;;30.20;20.60;;;;;;;-1.05;90.76;98053.13;5018822;28;20231;-67
2022/01/26 00:44:01;;;;;;;31.17;20.50;;;;;;;-1.04;90.59;98047.06;5019563;28;20223;-67
2022/01/26 00:46:28;;;;;;;31.93;20.80;;;;;;;-1.05;89.62;98041.91;5026916;28;20273;-67
2022/01/26 00:48:54;;;;;;;30.10;20.47;;;;;;;-1.15;90.05;98046.47;5035117;28;20206;-68
2022/01/26 00:51:22;;;;;;;28.77;19.57;;;;;;;-1.17;89.53;98032.66;5022889;28;20214;-68
2022/01/26 00:53:55;;;;;;;30.73;20.43;;;;;;;-1.07;89.74;98035.91;5036547;28;20205;-67
2022/01/26 00:56:21;;;;;;;35.13;20.83;;;;;;;-1.25;89.32;98026.84;5015396;28;20232;-66
2022/01/26 00:58:49;;;;;;;34.27;21.30;;;;;;;-1.13;89.90;98025.66;5009758;28;20217;-68
2022/01/26 01:01:16;;;;;;;29.03;20.13;;;;;;;-1.15;91.04;98023.13;5019987;28;20247;-68
2022/01/26 01:03:45;;;;;;;30.10;20.20;;;;;;;-1.30;90.82;98023.47;5037749;28;20215;-68
2022/01/26 01:06:16;;;;;;;33.70;21.00;;;;;;;-1.24;89.87;98028.50;5037937;28;20204;-68
2022/01/26 01:08:43;;;;;;;30.87;20.37;;;;;;;-1.19;90.20;98034.47;5038379;28;20196;-66
2022/01/26 01:11:10;;;;;;;28.57;19.47;;;;;;;-1.14;90.20;98027.44;5038913;28;20200;-68
2022/01/26 01:13:39;;;;;;;31.37;20.17;;;;;;;-1.14;89.85;98031.75;5037665;28;20215;-67
2022/01/26 01:16:08;;;;;;;29.60;20.67;;;;;;;-1.10;90.67;98025.59;5035612;28;20205;-66
2022/01/26 01:18:42;;;;;;;30.70;21.50;;;;;;;-1.09;89.81;98028.16;5018451;28;20238;-68
2022/01/26 01:24:21;;;;;;;30.13;19.37;;;;;;;-1.07;89.52;98028.97;4993491;28;20205;-67
2022/01/26 01:27:00;;;;;;;29.33;20.10;;;;;;;-1.20;89.24;98024.97;5018598;28;20205;-68
2022/01/26 01:29:29;;;;;;;31.77;18.83;;;;;;;-1.18;89.73;98020.59;5017087;28;20209;-67
2022/01/26 01:31:59;;;;;;;28.60;19.47;;;;;;;-1.21;90.06;98023.28;5017978;28;20660;-67
2022/01/26 01:34:34;;;;;;;27.97;19.13;;;;;;;-1.16;90.03;98018.81;5017817;28;20209;-67
2022/01/26 01:37:05;;;;;;;29.93;18.73;;;;;;;-1.20;89.66;98026.69;5017517;28;20220;-68
2022/01/26 01:39:33;;;;;;;31.67;19.73;;;;;;;-1.19;89.93;98023.22;5017395;28;20275;-68
2022/01/26 01:41:59;;;;;;;28.00;18.80;;;;;;;-1.13;90.14;98023.91;5014742;28;20312;-67
2022/01/26 01:44:26;;;;;;;26.20;17.73;;;;;;;-1.11;89.83;98024.75;4999679;28;20356;-67
2022/01/26 01:46:55;;;;;;;24.97;18.13;;;;;;;-1.18;91.31;98020.59;4998333;28;20223;-67
2022/01/26 01:49:22;;;;;;;26.73;18.23;;;;;;;-1.05;90.66;98006.41;4998273;28;20307;-68
2022/01/26 01:51:53;;;;;;;27.67;18.00;;;;;;;-0.94;90.49;98002.69;4997950;28;20206;-67
2022/01/26 01:54:20;;;;;;;24.13;17.33;;;;;;;-0.90;90.61;98009.50;4998721;28;20295;-67
2022/01/26 01:56:53;;;;;;;20.43;15.37;;;;;;;-0.84;90.30;98011.94;5015159;28;20644;-67
2022/01/26 01:59:20;;;;;;;20.73;15.60;;;;;;;-0.86;89.92;98001.59;5017630;28;20209;-68
2022/01/26 02:01:47;;;;;;;19.37;15.33;;;;;;;-0.82;90.58;98007.56;5017317;28;20262;-67
2022/01/26 02:04:13;;;;;;;21.97;15.93;;;;;;;-0.78;89.53;98004.00;5017165;28;20643;-67
2022/01/26 02:06:43;;;;;;;21.37;15.80;;;;;;;-0.80;90.82;98001.44;5020589;28;20205;-67
2022/01/26 02:09:10;;;;;;;20.73;15.37;;;;;;;-0.73;90.37;97999.50;5017001;28;20656;-66
2022/01/26 02:11:44;;;;;;;19.23;15.07;;;;;;;-0.67;90.35;98002.78;5016705;28;20208;-70
2022/01/26 02:14:17;;;;;;;20.20;15.87;;;;;;;-0.52;89.34;98007.56;5017044;28;20208;-68
2022/01/26 02:16:49;;;;;;;20.03;15.33;;;;;;;-0.56;90.36;98010.28;5016711;28;20295;-68
2022/01/26 02:52:56;;;;;;;28.00;19.13;;;;;;;-0.32;93.01;97996.59;5016339;28;20233;-71
2022/01/26 02:55:36;;;;;;;29.93;19.87;;;;;;;-0.25;92.36;97990.34;5015975;28;20310;-74
2022/01/26 02:58:35;;;;;;;30.57;19.30;;;;;;;-0.28;92.41;97981.78;5016295;28;20640;-69
2022/01/26 03:01:14;;;;;;;34.50;21.50;;;;;;;-0.43;92.89;97977.91;5015998;28;20292;-69
2022/01/26 03:03:44;;;;;;;30.60;19.97;;;;;;;-0.36;93.11;97984.63;5016199;28;20224;-68
2022/01/26 03:06:15;;;;;;;32.17;20.47;;;;;;;-0.42;94.46;97981.31;5020292;28;20301;-69
2022/01/26 03:08:47;;;;;;;31.03;20.13;;;;;;;-0.29;93.64;97982.69;5019256;28;20260;-69
2022/01/26 03:11:16;;;;;;;27.80;19.27;;;;;;;-0.37;93.84;97982.91;5016982;28;20288;-69
2022/01/26 03:13:47;;;;;;;30.47;20.43;;;;;;;-0.38;93.99;97982.94;5011725;28;20229;-68
2022/01/26 03:16:19;;;;;;;32.97;20.33;;;;;;;-0.31;93.88;97979.28;5009765;28;20261;-68
2022/01/26 03:19:01;;;;;;;29.20;19.83;;;;;;;-0.24;93.85;97986.84;5019480;28;20344;-67
2022/01/26 03:21:36;;;;;;;30.67;19.63;;;;;;;-0.34;93.54;97985.41;5016641;28;20545;-69
2022/01/26 03:29:54;;;;;;;33.03;20.80;;;;;;;-0.30;93.86;97994.84;5015811;28;20209;-67
2022/01/26 03:35:30;;;;;;;26.83;20.00;;;;;;;-0.21;92.67;97991.09;4994450;28;20231;-68
2022/01/26 03:37:59;;;;;;;31.13;19.63;;;;;;;-0.34;91.50;97982.81;4994812;28;20216;-69
2022/01/26 03:40:31;;;;;;;29.73;20.00;;;;;;;-0.37;92.10;97984.66;5007293;28;20596;-69
2022/01/26 03:42:59;;;;;;;29.73;20.00;;;;;;;-0.29;92.52;97993.09;5016789;28;20220;-68
2022/01/26 03:45:26;;;;;;;29.43;20.13;;;;;;;-0.37;93.53;97982.91;5015804;28;20208;-68
2022/01/26 03:47:53;;;;;;;30.70;20.20;;;;;;;-0.39;94.06;97987.28;5016411;28;20283;-68
2022/01/26 03:50:19;;;;;;;28.93;18.87;;;;;;;-0.29;93.14;97980.09;5015072;28;20217;-68
2022/01/26 03:52:46;;;;;;;30.30;20.30;;;;;;;-0.35;93.48;97973.31;5014530;28;20211;-69
2022/01/26 03:55:12;;;;;;;29.90;20.00;;;;;;;-0.39;93.09;97981.25;5015566;28;20237;-68
2022/01/26 03:57:39;;;;;;;32.00;21.07;;;;;;;-0.38;93.64;97986.41;5015557;28;20225;-68
2022/01/26 04:00:08;;;;;;;31.27;20.50;;;;;;;-0.42;94.31;97991.72;5015297;28;20232;-67
2022/01/26 04:02:35;;;;;;;31.40;20.73;;;;;;;-0.42;94.27;97992.56;5014872;28;20236;-69
2022/01/26 04:05:05;;;;;;;28.13;19.60;;;;;;;-0.40;94.77;97993.41;5014894;28;20221;-69
2022/01/26 04:07:32;;;;;;;30.60;20.00;;;;;;;-0.37;94.58;97990.72;5019018;28;20276;-70
2022/01/26 04:10:06;;;;;;;30.53;20.70;;;;;;;-0.44;95.31;97989.19;5015231;28;20547;-68
2022/01/26 04:12:34;;;;;;;32.73;21.40;;;;;;;-0.43;95.84;97988.28;5015614;28;20197;-68
2022/01/26 04:15:09;;;;;;;33.07;21.20;;;;;;;-0.39;95.11;97979.50;5015315;28;20671;-69
2022/01/26 04:17:37;;;;;;;31.73;20.97;;;;;;;-0.36;94.46;97981.16;5015200;28;20199;-69
2022/01/26 04:20:04;;;;;;;39.37;23.77;;;;;;;-0.37;95.06;97990.72;5015251;28;20302;-68
2022/01/26 04:22:37;;;;;;;33.23;21.67;;;;;;;-0.36;95.75;97987.22;5014917;28;20220;-69
2022/01/26 04:25:06;;;;;;;30.93;21.00;;;;;;;-0.25;93.70;97995.53;5015544;28;20240;-68
2022/01/26 04:27:36;;;;;;;31.63;21.20;;;;;;;-0.27;93.36;97997.34;5015217;28;20551;-68
2022/01/26 04:30:04;;;;;;;31.13;19.87;;;;;;;-0.30;93.40;97992.25;5015223;28;20244;-67
2022/01/26 04:32:31;;;;;;;33.97;20.67;;;;;;;-0.34;94.04;97995.81;5014942;28;20660;-68
2022/01/26 04:34:59;;;;;;;33.43;20.60;;;;;;;-0.30;93.35;97991.38;5015178;28;20538;-69
2022/01/26 04:37:35;;;;;;;35.67;21.37;;;;;;;-0.33;93.30;97986.28;5015330;28;20208;-69
2022/01/26 04:40:03;;;;;;;33.23;22.23;;;;;;;-0.28;93.56;97982.63;5014841;28;20251;-67
2022/01/26 04:42:46;;;;;;;32.33;21.57;;;;;;;-0.28;93.52;97993.03;5014834;28;20279;-66
2022/01/26 04:45:12;;;;;;;35.10;21.43;;;;;;;-0.30;93.71;97987.03;5015264;28;20202;-66
2022/01/26 04:47:40;;;;;;;35.03;22.90;;;;;;;-0.33;92.51;97987.13;5015012;28;20224;-66
2022/01/26 04:50:10;;;;;;;32.37;22.13;;;;;;;-0.29;92.49;97987.91;5015846;28;20216;-66
2022/01/26 04:52:36;;;;;;;33.27;21.70;;;;;;;-0.43;94.62;97988.28;5015364;28;20226;-67
2022/01/26 04:55:03;;;;;;;35.40;22.77;;;;;;;-0.41;95.53;97983.03;5015341;28;20246;-66
2022/01/26 04:57:30;;;;;;;34.03;21.57;;;;;;;-0.44;96.00;97980.53;5016266;28;20210;-66
2022/01/26 04:59:56;;;;;;;31.80;20.53;;;;;;;-0.42;94.77;97981.31;5016247;28;20205;-66
2022/01/26 05:02:23;;;;;;;31.47;21.53;;;;;;;-0.40;95.02;97979.56;5016702;28;20228;-66
2022/01/26 05:04:49;;;;;;;28.57;19.70;;;;;;;-0.49;95.44;97983.25;5019903;28;20212;-67
2022/01/26 05:07:17;;;;;;;26.10;19.67;;;;;;;-0.58;94.63;97979.19;5025180;28;20208;-67
2022/01/26 05:09:43;;;;;;;30.73;20.43;;;;;;;-0.61;94.91;97984.47;5023813;28;20227;-67
2022/01/26 05:12:12;;;;;;;32.47;21.40;;;;;;;-0.60;95.93;97987.88;5023505;28;20216;-67
2022/01/26 05:14:40;;;;;;;28.53;20.07;;;;;;;-0.58;95.38;97986.13;5040991;28;20214;-67
2022/01/26 05:17:07;;;;;;;28.37;19.60;;;;;;;-0.53;95.57;97979.03;5041346;28;20177;-67
2022/01/26 05:19:33;;;;;;;27.57;19.43;;;;;;;-0.60;94.58;97982.69;5041389;28;20189;-67
2022/01/26 05:22:00;;;;;;;29.03;20.30;;;;;;;-0.63;95.21;97982.78;5041704;28;20188;-67
2022/01/26 05:24:28;;;;;;;29.87;20.67;;;;;;;-0.60;95.69;97982.69;5040633;28;20214;-66
2022/01/26 05:26:54;;;;;;;28.17;19.70;;;;;;;-0.61;95.27;97987.06;5018370;28;20224;-66
2022/01/26 05:29:20;;;;;;;26.90;20.20;;;;;;;-0.54;94.27;97988.59;5018337;28;20212;-67
2022/01/26 05:31:47;;;;;;;31.33;19.60;;;;;;;-0.52;94.42;97992.00;5018070;28;20208;-65
2022/01/26 05:34:13;;;;;;;29.37;20.90;;;;;;;-0.42;94.57;97996.91;5018446;28;20204;-67
2022/01/26 05:36:40;;;;;;;30.50;19.87;;;;;;;-0.43;94.36;97990.91;5019813;28;20208;-67
2022/01/26 05:39:07;;;;;;;30.77;21.07;;;;;;;-0.35;94.66;97988.91;5019932;28;20213;-67
2022/01/26 05:41:37;;;;;;;30.77;21.57;;;;;;;-0.34;93.96;97985.41;5018338;28;20208;-67
2022/01/26 05:44:04;;;;;;;30.07;21.30;;;;;;;-0.42;93.69;97979.59;5017695;28;20221;-67
2022/01/26 05:46:37;;;;;;;28.17;19.70;;;;;;;-0.42;94.51;97982.19;5017758;28;20208;-67
2022/01/26 05:49:03;;;;;;;27.63;20.57;;;;;;;-0.46;94.59;97990.94;5017849;28;20544;-67
2022/01/26 05:51:32;;;;;;;29.80;21.43;;;;;;;-0.52;94.88;97980.75;5018192;28;20211;-67
2022/01/26 05:53:58;;;;;;;31.80;21.70;;;;;;;-0.46;94.63;97969.34;5017606;28;20263;-67
2022/01/26 05:56:25;;;;;;;29.40;22.00;;;;;;;-0.58;94.54;97980.91;5017494;28;20216;-67
2022/01/26 05:58:53;;;;;;;31.60;21.27;;;;;;;-0.56;94.54;97974.78;5014058;28;20207;-66
2022/01/26 06:01:20;;;;;;;33.37;21.57;;;;;;;-0.59;94.63;97985.25;5009144;28;20223;-67
2022/01/26 06:03:47;;;;;;;30.27;21.17;;;;;;;-0.64;94.92;97992.31;5018533;28;20427;-67
2022/01/26 06:06:15;;;;;;;34.70;21.60;;;;;;;-0.65;96.78;97990.63;5021048;28;20647;-67
2022/01/26 06:08:41;;;;;;;31.73;20.13;;;;;;;-0.63;96.05;97996.63;5017336;28;20210;-66
2022/01/26 06:11:08;;;;;;;29.23;20.53;;;;;;;-0.60;95.91;97993.09;5017954;28;20543;-67
2022/01/26 06:13:35;;;;;;;29.10;20.37;;;;;;;-0.57;95.80;97993.84;5017274;28;20205;-65
2022/01/26 06:16:03;;;;;;;29.60;20.90;;;;;;;-0.53;95.48;97994.63;5016038;28;20219;-66
2022/01/26 06:18:29;;;;;;;30.73;21.20;;;;;;;-0.58;94.73;97997.38;5018032;28;20543;-67
2022/01/26 06:20:56;;;;;;;31.23;21.80;;;;;;;-0.56;95.70;97994.72;5024855;28;20532;-66
2022/01/26 06:23:24;;;;;;;32.27;21.93;;;;;;;-0.50;95.92;97994.56;5021184;28;20267;-67
2022/01/26 06:25:51;;;;;;;29.43;21.40;;;;;;;-0.45;95.76;97992.66;5017875;28;20645;-67
2022/01/26 06:28:18;;;;;;;29.23;20.60;;;;;;;-0.41;95.17;97998.63;5024201;28;20216;-66
2022/01/26 06:30:46;;;;;;;30.53;22.23;;;;;;;-0.38;94.41;98003.72;5009274;28;20546;-66
2022/01/26 06:33:15;;;;;;;32.47;22.63;;;;;;;-0.33;94.74;98013.13;5016943;28;20216;-67
2022/01/26 06:35:41;;;;;;;31.70;22.17;;;;;;;-0.30;94.95;98006.97;5014333;28;20300;-67
2022/01/26 06:38:08;;;;;;;31.47;21.70;;;;;;;-0.31;94.11;97997.47;5014903;28;20268;-65
2022/01/26 06:40:35;;;;;;;30.03;20.07;;;;;;;-0.25;93.34;98002.50;5008372;28;20212;-66
2022/01/26 06:43:06;;;;;;;29.77;20.63;;;;;;;-0.19;92.84;98005.78;5010841;28;20221;-67
2022/01/26 06:45:35;;;;;;;28.90;20.93;;;;;;;-0.22;92.00;98011.06;5007548;28;20208;-67
2022/01/26 06:48:27;;;;;;;25.33;17.67;;;;;;;-0.29;91.18;98008.69;5008735;28;20272;-67
2022/01/26 06:50:55;;;;;;;26.50;17.60;;;;;;;-0.35;91.61;98014.91;5004444;28;20271;-67
2022/01/26 06:53:22;;;;;;;25.23;18.27;;;;;;;-0.36;90.97;98026.22;4997162;28;20209;-67
2022/01/26 06:55:48;;;;;;;28.60;20.00;;;;;;;-0.35;90.53;98025.28;5010508;28;20246;-66
2022/01/26 06:58:15;;;;;;;30.00;20.07;;;;;;;-0.38;90.93;98019.31;5016483;28;20221;-66
2022/01/26 07:00:42;;;;;;;29.47;20.33;;;;;;;-0.41;90.85;98030.66;5017012;28;20221;-66
2022/01/26 07:03:08;;;;;;;25.67;19.20;;;;;;;-0.43;90.70;98032.47;5017127;28;20234;-66
2022/01/26 07:05:34;;;;;;;29.27;20.13;;;;;;;-0.39;91.16;98044.47;5004238;28;20212;-66
2022/01/26 07:08:03;;;;;;;28.57;19.67;;;;;;;-0.39;91.45;98049.66;5014037;28;20204;-67
2022/01/26 07:10:30;;;;;;;30.20;19.50;;;;;;;-0.40;91.58;98055.78;5017014;28;20217;-66
2022/01/26 07:12:57;;;;;;;26.13;17.97;;;;;;;-0.37;90.79;98063.47;5004926;28;20279;-67
2022/01/26 07:23:49;;;;;;;32.07;20.30;;;;;;;-0.41;92.01;98051.47;5006991;28;20217;-67
2022/01/26 07:26:15;;;;;;;29.93;20.37;;;;;;;-0.41;92.37;98035.00;5016840;28;20212;-67
2022/01/26 07:28:42;;;;;;;29.63;21.07;;;;;;;-0.38;91.73;98042.72;5019081;28;20229;-67
2022/01/26 07:31:09;;;;;;;31.53;20.83;;;;;;;-0.28;90.85;98042.41;5018777;28;20251;-67
2022/01/26 07:33:37;;;;;;;27.40;18.53;;;;;;;-0.41;90.00;98046.25;5018153;28;20720;-66
2022/01/26 07:36:05;;;;;;;27.90;19.37;;;;;;;-0.60;91.30;98066.69;5016625;28;20212;-67
2022/01/26 07:38:32;;;;;;;29.10;20.73;;;;;;;-0.57;92.45;98068.38;5017237;28;20201;-66
2022/01/26 07:41:00;;;;;;;26.17;20.27;;;;;;;-0.58;92.51;98072.72;5016321;28;20304;-67
2022/01/26 07:43:26;;;;;;;27.47;20.23;;;;;;;-0.49;91.79;98071.59;5017213;28;20229;-67
2022/01/26 07:45:53;;;;;;;27.70;19.67;;;;;;;-0.51;92.02;98063.00;5003768;28;20204;-67
2022/01/26 07:48:19;;;;;;;28.57;19.57;;;;;;;-0.54;90.87;98065.69;5006835;28;20216;-68
2022/01/26 07:50:46;;;;;;;28.47;19.77;;;;;;;-0.58;91.92;98064.91;5015154;28;20208;-67
2022/01/26 07:53:15;;;;;;;30.70;21.50;;;;;;;-0.59;92.75;98064.94;5017647;28;20200;-67
2022/01/26 07:55:42;;;;;;;27.77;19.57;;;;;;;-0.54;92.70;98068.28;5017898;28;20569;-67
2022/01/26 07:58:11;;;;;;;29.50;21.03;;;;;;;-0.42;91.61;98080.94;5018253;28;20239;-68
2022/01/26 08:00:37;;;;;;;29.47;20.20;;;;;;;-0.49;92.28;98082.00;5021915;28;20229;-68
2022/01/26 08:03:04;;;;;;;27.10;19.70;;;;;;;-0.41;92.40;98090.44;5037227;28;20194;-66
2022/01/26 08:05:31;;;;;;;29.93;21.03;;;;;;;-0.46;90.31;98083.69;5023612;28;20203;-67
2022/01/26 08:07:57;;;;;;;30.07;21.37;;;;;;;-0.45;90.16;98081.00;5039880;28;20184;-67
2022/01/26 08:10:24;;;;;;;31.73;20.43;;;;;;;-0.46;91.54;98070.69;5037462;28;20211;-67
2022/01/26 08:12:50;;;;;;;31.07;21.57;;;;;;;-0.52;92.55;98074.28;5024808;28;20210;-67
2022/01/26 08:15:18;;;;;;;32.50;21.57;;;;;;;-0.60;91.91;98071.03;5018433;28;20192;-67
2022/01/26 08:17:45;;;;;;;33.47;22.67;;;;;;;-0.64;93.32;98082.41;5018397;28;20186;-67
2022/01/26 08:20:11;;;;;;;33.57;22.73;;;;;;;-0.62;93.98;98083.22;5024271;28;20233;-67
2022/01/26 08:22:39;;;;;;;32.43;22.60;;;;;;;-0.69;93.22;98082.53;5038130;28;20265;-67
2022/01/26 08:25:07;;;;;;;35.13;23.43;;;;;;;-0.69;93.66;98074.72;5038480;28;20220;-66
2022/01/26 08:27:40;;;;;;;33.13;22.50;;;;;;;-0.66;94.71;98077.25;5038113;28;20200;-67
2022/01/26 08:30:10;;;;;;;34.70;22.80;;;;;;;-0.58;94.05;98074.44;5019946;28;20268;-66
2022/01/26 08:32:38;;;;;;;36.20;24.13;;;;;;;-0.55;93.78;98075.22;5038322;28;20204;-69
2022/01/26 08:35:05;;;;;;;35.77;23.37;;;;;;;-0.50;93.75;98077.72;5038313;28;20186;-66
2022/01/26 08:37:32;;;;;;;38.63;24.40;;;;;;;-0.51;92.85;98083.78;5036571;28;20252;-67
2022/01/26 08:39:58;;;;;;;37.80;24.57;;;;;;;-0.53;92.95;98089.00;5029972;28;20186;-68
2022/01/26 08:42:25;;;;;;;35.13;24.23;;;;;;;-0.46;93.67;98089.69;5041143;28;20195;-68
2022/01/26 08:44:52;;;;;;;34.67;24.37;;;;;;;-0.33;93.60;98096.28;5040167;28;20223;-68
2022/01/26 08:47:19;;;;;;;40.50;25.40;;;;;;;-0.37;92.57;98092.06;5041353;28;20257;-67
2022/01/26 08:49:46;;;;;;;39.93;23.40;;;;;;;-0.28;93.42;98083.16;5041267;28;20202;-66
2022/01/26 08:52:13;;;;;;;35.30;24.53;;;;;;;-0.26;91.36;98092.63;5041387;28;20201;-68
2022/01/26 08:54:39;;;;;;;38.03;25.73;;;;;;;-0.26;91.76;98090.03;5041032;28;20213;-68
2022/01/26 08:57:06;;;;;;;35.50;24.50;;;;;;;-0.27;92.81;98096.13;5041762;28;20185;-67
2022/01/26 08:59:32;;;;;;;31.00;22.60;;;;;;;-0.03;92.19;98097.19;5034933;28;20209;-68
2022/01/26 09:01:59;;;;;;;33.60;23.10;;;;;;;0.06;90.36;98098.69;5016474;28;20219;-68
2022/01/26 09:04:25;;;;;;;31.57;21.73;;;;;;;0.07;90.87;98090.00;5037970;28;20230;-68
2022/01/26 09:06:55;;;;;;;30.37;22.23;;;;;;;0.14;90.14;98081.13;5040381;28;20289;-67
2022/01/26 09:09:24;;;;;;;30.60;22.23;;;;;;;0.32;89.46;98091.00;5038199;28;20188;-67
2022/01/26 09:11:53;;;;;;;29.30;22.10;;;;;;;0.39;88.68;98089.91;5023341;28;20217;-67
2022/01/26 09:14:22;;;;;;;33.47;22.93;;;;;;;0.56;87.90;98090.25;5019883;28;20191;-67
2022/01/26 09:16:52;;;;;;;29.37;22.43;;;;;;;0.62;87.69;98094.41;5017442;28;20256;-67
2022/01/26 09:19:26;;;;;;;32.63;22.23;;;;;;;0.74;86.99;98101.84;5018331;28;20213;-66
2022/01/26 09:21:55;;;;;;;32.50;23.20;;;;;;;0.74;87.45;98094.88;5013495;28;20238;-67
2022/01/26 09:24:21;;;;;;;32.80;24.43;;;;;;;0.81;85.74;98105.97;5011032;28;20234;-67
2022/01/26 09:26:48;;;;;;;30.23;21.77;;;;;;;0.61;86.94;98111.75;5019285;28;20211;-66
2022/01/26 09:29:14;;;;;;;34.17;23.07;;;;;;;1.10;86.82;98107.66;5019215;28;20220;-67
2022/01/26 09:31:42;;;;;;;30.10;22.30;;;;;;;2.03;83.51;98105.28;5027633;28;20213;-67
2022/01/26 09:34:08;;;;;;;28.67;21.37;;;;;;;3.06;77.37;98103.94;5019033;28;20211;-66
2022/01/26 09:36:35;;;;;;;24.53;18.70;;;;;;;2.74;74.60;98116.50;5005641;28;20212;-66
2022/01/26 09:39:02;;;;;;;22.87;18.40;;;;;;;2.65;76.56;98113.41;5018148;28;20215;-67
2022/01/26 09:41:29;;;;;;;21.23;17.37;;;;;;;2.89;75.97;98102.84;5018645;28;20208;-68
2022/01/26 09:43:56;;;;;;;26.63;18.70;;;;;;;3.56;73.29;98097.47;5018459;28;20553;-66
2022/01/26 09:46:22;;;;;;;20.43;17.27;;;;;;;4.36;71.68;98103.53;5018606;28;20572;-67
2022/01/26 09:48:49;;;;;;;21.23;17.07;;;;;;;4.92;66.67;98104.38;5018730;28;20208;-67
2022/01/26 09:51:16;;;;;;;20.40;16.70;;;;;;;5.14;65.30;98108.59;5017118;28;20650;-67
2022/01/26 09:53:43;;;;;;;21.40;17.17;;;;;;;5.25;66.37;98095.81;5018094;28;20278;-66
2022/01/26 09:56:11;;;;;;;22.17;17.40;;;;;;;6.00;62.79;98092.00;5017918;28;20219;-67
2022/01/26 09:58:37;;;;;;;20.17;17.17;;;;;;;6.40;60.88;98084.63;5018200;28;20274;-67
2022/01/26 10:01:06;;;;;;;18.97;16.53;;;;;;;7.08;59.44;98087.88;5018433;28;20212;-66
2022/01/26 10:03:34;;;;;;;18.97;15.60;;;;;;;6.84;59.16;98080.41;5018543;28;20212;-68
2022/01/26 10:06:01;;;;;;;17.03;15.30;;;;;;;6.85;57.11;98074.25;5022320;28;20265;-67
2022/01/26 10:08:56;;;;;;;16.47;14.67;;;;;;;6.89;56.53;98078.41;5021342;28;20307;-67
2022/01/26 10:17:24;;;;;;;16.57;14.87;;;;;;;8.15;53.61;98072.78;5017631;28;20214;-67
2022/01/26 10:19:58;;;;;;;16.30;14.23;;;;;;;8.88;52.41;98084.91;5018179;28;20210;-67
2022/01/26 10:22:29;;;;;;;16.38;14.80;;;;;;;8.38;52.57;98101.25;5017240;28;20547;-67
2022/01/26 10:25:07;;;;;;;16.52;14.82;;;;;;;8.58;52.42;98100.84;5017639;28;20680;-67
2022/01/26 10:27:40;;;;;;;17.58;15.25;;;;;;;8.77;53.05;98104.03;5018310;28;20528;-68
2022/01/26 10:30:09;;;;;;;17.60;15.63;;;;;;;9.30;50.93;98110.31;5017899;28;20215;-67
2022/01/26 10:32:35;;;;;;;23.70;16.08;;;;;;;8.89;51.30;98100.63;5018021;28;20216;-68
2022/01/26 10:35:02;;;;;;;17.63;15.80;;;;;;;9.26;51.25;98095.63;5009711;28;20563;-68
2022/01/26 10:37:29;;;;;;;17.10;15.32;;;;;;;9.36;50.82;98087.00;5012060;28;20221;-67
2022/01/26 10:40:08;;;;;;;16.33;14.63;;;;;;;9.79;50.96;98079.72;5017337;28;20217;-68
2022/01/26 10:42:35;;;;;;;16.00;14.43;;;;;;;10.99;46.75;98064.22;5017537;28;20212;-68
2022/01/26 10:45:10;;;;;;;16.85;14.32;;;;;;;10.21;48.36;98069.84;5011937;28;20232;-68
2022/01/26 10:47:39;;;;;;;18.27;15.18;;;;;;;9.75;49.89;98083.53;5017963;28;20207;-68
2022/01/26 10:50:31;;;;;;;17.50;15.13;;;;;;;9.29;50.17;98090.16;5017475;28;20208;-67
2022/01/26 10:53:06;;;;;;;16.60;14.90;;;;;;;9.40;49.28;98092.94;5017553;28;20216;-68
2022/01/26 10:55:34;;;;;;;15.00;13.43;;;;;;;9.78;49.54;98099.16;5016874;28;20334;-68
2022/01/26 10:58:01;;;;;;;14.38;12.98;;;;;;;9.93;48.68;98102.56;5017504;28;20649;-68
2022/01/26 11:00:29;;;;;;;15.13;13.52;;;;;;;9.62;50.94;98092.38;5016452;28;20205;-68
2022/01/26 11:02:57;;;;;;;15.60;14.10;;;;;;;10.15;49.61;98084.34;5016766;28;20220;-67
2022/01/26 11:05:24;;;;;;;13.77;12.50;;;;;;;10.12;49.17;98071.31;5004929;28;20232;-70
2022/01/26 11:07:51;;;;;;;13.95;12.68;;;;;;;10.29;47.98;98064.88;5021401;28;20201;-70
2022/01/26 11:10:18;;;;;;;13.88;12.48;;;;;;;10.43;48.25;98051.53;5014918;28;20232;-71
2022/01/26 11:12:45;;;;;;;13.70;12.40;;;;;;;10.56;47.47;98033.84;5012050;28;20208;-71
2022/01/26 11:15:13;;;;;;;12.43;11.30;;;;;;;11.13;46.63;98030.59;5021543;28;20219;-71
2022/01/26 11:17:44;;;;;;;13.27;12.07;;;;;;;11.32;44.95;98015.03;5037047;28;20192;-68
2022/01/26 11:20:20;;;;;;;13.05;11.85;;;;;;;10.75;47.08;98010.41;5038750;28;20197;-72
2022/01/26 11:22:51;;;;;;;13.65;12.35;;;;;;;10.53;48.24;97994.38;5038860;28;20226;-71
2022/01/26 11:25:18;;;;;;;13.10;11.90;;;;;;;10.23;47.83;97988.66;5037095;28;20216;-72
2022/01/26 11:27:45;;;;;;;13.48;12.18;;;;;;;9.50;50.77;97977.81;5037050;28;20200;-71
2022/01/26 11:30:17;;;;;;;12.90;11.70;;;;;;;9.38;50.82;97957.56;5035715;28;20208;-71
2022/01/26 11:32:52;;;;;;;13.68;12.38;;;;;;;9.27;50.49;97955.63;5027826;28;20189;-72
2022/01/26 11:35:20;;;;;;;13.73;12.33;;;;;;;9.21;52.60;97960.47;5008133;28;20197;-71
2022/01/26 11:37:51;;;;;;;13.80;12.40;;;;;;;8.85;53.26;97966.41;5022390;28;20208;-70
2022/01/26 11:45:42;;;;;;;15.53;13.67;;;;;;;8.01;55.14;97973.47;5015535;28;20240;-72
2022/01/26 11:48:23;;;;;;;14.83;13.37;;;;;;;7.72;55.96;97980.53;5015836;28;20223;-70
2022/01/26 11:50:59;;;;;;;15.40;13.90;;;;;;;7.81;54.81;97995.78;5004616;28;20650;-71
2022/01/26 11:53:26;;;;;;;19.20;12.67;;;;;;;7.51;56.66;97987.94;5017275;28;20204;-71
2022/01/26 11:56:01;;;;;;;14.60;13.00;;;;;;;7.36;57.86;97974.84;5015688;28;20331;-70
2022/01/26 11:58:31;;;;;;;14.20;12.80;;;;;;;7.47;56.89;97985.59;5016425;28;20211;-71
2022/01/26 12:01:11;;;;;;;15.00;12.70;;;;;;;7.50;57.05;97973.09;5015846;28;20315;-71
2022/01/26 12:03:48;;;;;;;16.43;13.27;;;;;;;7.25;57.72;97958.84;5012443;28;20305;-68
2022/01/26 12:06:19;;;;;;;13.80;12.33;;;;;;;7.17;57.69;97955.81;5010104;28;20207;-67
2022/01/26 12:08:46;;;;;;;14.07;12.67;;;;;;;6.95;59.35;97951.81;5015402;28;20299;-67
2022/01/26 12:11:14;;;;;;;22.70;13.40;;;;;;;7.13;58.83;97954.28;5015028;28;20208;-67
2022/01/26 12:13:41;;;;;;;14.60;12.73;;;;;;;7.14;57.93;97956.84;5016217;28;20208;-67
2022/01/26 12:16:12;;;;;;;50.37;18.47;;;;;;;7.19;57.03;97959.22;5019018;28;20196;-67
2022/01/26 12:18:46;;;;;;;70.93;20.10;;;;;;;7.01;58.94;97956.72;5019181;28;20232;-67
2022/01/26 12:35:31;;;;;;;14.33;12.83;;;;;;;7.59;58.80;97976.94;4978153;28;20216;-69
2022/01/26 12:38:05;;;;;;;17.33;14.17;;;;;;;7.66;59.23;97970.38;5012114;28;20219;-67
2022/01/26 12:43:20;;;;;;;15.70;14.03;;;;;;;7.96;59.05;97960.63;5008634;28;20231;-69
2022/01/26 12:45:48;;;;;;;14.83;13.23;;;;;;;7.97;58.41;97967.56;5018431;28;20235;-66
2022/01/26 12:48:15;;;;;;;15.43;13.70;;;;;;;7.90;58.71;97958.34;5018960;28;20209;-67
2022/01/26 12:50:43;;;;;;;16.27;14.40;;;;;;;7.89;58.78;97956.66;5018801;28;20224;-67
2022/01/26 12:53:09;;;;;;;18.37;13.80;;;;;;;7.74;58.59;97946.22;5018682;28;20535;-67
2022/01/26 12:55:37;;;;;;;15.17;13.57;;;;;;;7.85;58.26;97930.59;5018319;28;20232;-67
2022/01/26 12:58:04;;;;;;;15.63;14.00;;;;;;;7.65;59.68;97931.00;5018047;28;20216;-67
2022/01/26 13:00:42;;;;;;;15.20;13.60;;;;;;;7.53;60.12;97932.59;5017858;28;20219;-67
2022/01/26 13:03:18;;;;;;;16.40;14.17;;;;;;;7.61;60.15;97925.06;5017996;28;20215;-66
2022/01/26 13:05:46;;;;;;;15.80;14.10;;;;;;;7.57;60.13;97926.19;5019412;28;20251;-67